sensor_id;sensor_type;location;lat;lon;timestamp;P1;durP1;ratioP1;P2;durP2;ratioP2
68176;SDS011;56478;50.982;7.032;2023-02-28T00:02:17;2.97;;;2.70;;
68176;SDS011;56478;50.982;7.032;2023-02-28T00:04:42;3.25;;;2.50;;
68176;SDS011;56478;50.982;7.032;2023-02-28T00:07:08;3.53;;;2.58;;
68176;SDS011;56478;50.982;7.032;2023-02-28T00:09:34;4.03;;;2.40;;
68176;SDS011;56478;50.982;7.032;2023-02-28T00:12:00;2.58;;;2.28;;
68176;SDS011;56478;50.982;7.032;2023-02-28T00:14:35;3.60;;;2.35;;
68176;SDS011;56478;50.982;7.032;2023-02-28T00:17:01;2.70;;;2.45;;
68176;SDS011;56478;50.982;7.032;2023-02-28T00:19:27;3.92;;;2.33;;
68176;SDS011;56478;50.982;7.032;2023-02-28T00:21:52;2.88;;;2.30;;
68176;SDS011;56478;50.982;7.032;2023-02-28T00:24:18;2.63;;;2.42;;
68176;SDS011;56478;50.982;7.032;2023-02-28T00:26:43;6.88;;;2.50;;
68176;SDS011;56478;50.982;7.032;2023-02-28T00:29:09;3.58;;;2.50;;
68176;SDS011;56478;50.982;7.032;2023-02-28T00:31:35;3.22;;;2.17;;
68176;SDS011;56478;50.982;7.032;2023-02-28T00:34:00;3.17;;;2.10;;
68176;SDS011;56478;50.982;7.032;2023-02-28T00:36:26;2.40;;;2.20;;
68176;SDS011;56478;50.982;7.032;2023-02-28T00:38:52;2.95;;;2.50;;
68176;SDS011;56478;50.982;7.032;2023-02-28T00:41:17;2.35;;;2.15;;
68176;SDS011;56478;50.982;7.032;2023-02-28T00:43:43;2.17;;;2.08;;
68176;SDS011;56478;50.982;7.032;2023-02-28T00:46:09;2.30;;;2.10;;
68176;SDS011;56478;50.982;7.032;2023-02-28T00:48:34;3.67;;;2.10;;
68176;SDS011;56478;50.982;7.032;2023-02-28T00:51:00;3.53;;;2.33;;
68176;SDS011;56478;50.982;7.032;2023-02-28T00:53:26;2.72;;;2.40;;
68176;SDS011;56478;50.982;7.032;2023-02-28T00:55:51;3.42;;;2.47;;
68176;SDS011;56478;50.982;7.032;2023-02-28T00:58:17;3.60;;;2.45;;
68176;SDS011;56478;50.982;7.032;2023-02-28T01:00:43;3.17;;;2.20;;
68176;SDS011;56478;50.982;7.032;2023-02-28T01:03:08;3.13;;;2.40;;
68176;SDS011;56478;50.982;7.032;2023-02-28T01:05:34;3.15;;;2.22;;
68176;SDS011;56478;50.982;7.032;2023-02-28T01:07:59;2.30;;;2.10;;
68176;SDS011;56478;50.982;7.032;2023-02-28T01:10:25;3.40;;;2.50;;
68176;SDS011;56478;50.982;7.032;2023-02-28T01:12:52;2.42;;;2.22;;
68176;SDS011;56478;50.982;7.032;2023-02-28T01:15:18;3.30;;;2.45;;
68176;SDS011;56478;50.982;7.032;2023-02-28T01:17:43;3.60;;;2.40;;
68176;SDS011;56478;50.982;7.032;2023-02-28T01:20:09;2.40;;;2.20;;
68176;SDS011;56478;50.982;7.032;2023-02-28T01:22:35;3.05;;;2.28;;
68176;SDS011;56478;50.982;7.032;2023-02-28T01:25:01;3.50;;;2.35;;
68176;SDS011;56478;50.982;7.032;2023-02-28T01:27:26;2.15;;;2.05;;
68176;SDS011;56478;50.982;7.032;2023-02-28T01:29:53;3.55;;;2.50;;
68176;SDS011;56478;50.982;7.032;2023-02-28T01:32:18;4.03;;;2.55;;
68176;SDS011;56478;50.982;7.032;2023-02-28T01:34:44;3.25;;;2.40;;
68176;SDS011;56478;50.982;7.032;2023-02-28T01:37:09;2.55;;;2.33;;
68176;SDS011;56478;50.982;7.032;2023-02-28T01:39:35;4.93;;;2.22;;
68176;SDS011;56478;50.982;7.032;2023-02-28T01:42:00;2.60;;;2.40;;
68176;SDS011;56478;50.982;7.032;2023-02-28T01:47:36;2.60;;;2.40;;
68176;SDS011;56478;50.982;7.032;2023-02-28T01:50:06;2.40;;;2.20;;
68176;SDS011;56478;50.982;7.032;2023-02-28T01:52:34;3.20;;;2.28;;
68176;SDS011;56478;50.982;7.032;2023-02-28T01:55:02;2.92;;;2.33;;
68176;SDS011;56478;50.982;7.032;2023-02-28T01:57:33;2.60;;;2.33;;
68176;SDS011;56478;50.982;7.032;2023-02-28T02:00:25;3.05;;;2.30;;
68176;SDS011;56478;50.982;7.032;2023-02-28T02:02:54;3.08;;;2.17;;
68176;SDS011;56478;50.982;7.032;2023-02-28T02:05:27;3.45;;;2.63;;
68176;SDS011;56478;50.982;7.032;2023-02-28T02:07:57;3.03;;;2.50;;
68176;SDS011;56478;50.982;7.032;2023-02-28T02:10:40;3.90;;;2.50;;
68176;SDS011;56478;50.982;7.032;2023-02-28T02:18:50;3.00;;;2.40;;
68176;SDS011;56478;50.982;7.032;2023-02-28T02:24:29;2.50;;;2.30;;
68176;SDS011;56478;50.982;7.032;2023-02-28T02:27:05;3.03;;;2.33;;
68176;SDS011;56478;50.982;7.032;2023-02-28T02:35:14;2.67;;;2.15;;
68176;SDS011;56478;50.982;7.032;2023-02-28T02:38:06;3.30;;;2.30;;
68176;SDS011;56478;50.982;7.032;2023-02-28T02:41:01;1.98;;;1.88;;
68176;SDS011;56478;50.982;7.032;2023-02-28T02:43:40;3.38;;;2.17;;
68176;SDS011;56478;50.982;7.032;2023-02-28T02:46:49;3.15;;;2.38;;
68176;SDS011;56478;50.982;7.032;2023-02-28T02:49:00;3.35;;;2.10;;
68176;SDS011;56478;50.982;7.032;2023-02-28T02:51:34;2.60;;;2.10;;
68176;SDS011;56478;50.982;7.032;2023-02-28T02:54:03;2.78;;;2.58;;
68176;SDS011;56478;50.982;7.032;2023-02-28T02:56:33;2.38;;;2.10;;
68176;SDS011;56478;50.982;7.032;2023-02-28T02:59:02;2.38;;;2.17;;
68176;SDS011;56478;50.982;7.032;2023-02-28T03:01:31;2.30;;;2.10;;
68176;SDS011;56478;50.982;7.032;2023-02-28T03:04:01;2.17;;;2.03;;
68176;SDS011;56478;50.982;7.032;2023-02-28T03:06:29;2.90;;;2.20;;
68176;SDS011;56478;50.982;7.032;2023-02-28T03:08:55;2.15;;;2.05;;
68176;SDS011;56478;50.982;7.032;2023-02-28T03:11:21;2.38;;;2.17;;
68176;SDS011;56478;50.982;7.032;2023-02-28T03:19:47;2.60;;;2.40;;
68176;SDS011;56478;50.982;7.032;2023-02-28T03:22:33;2.47;;;2.13;;
68176;SDS011;56478;50.982;7.032;2023-02-28T03:28:17;2.40;;;2.20;;
68176;SDS011;56478;50.982;7.032;2023-02-28T03:33:39;2.50;;;2.20;;
68176;SDS011;56478;50.982;7.032;2023-02-28T03:36:10;2.40;;;2.20;;
68176;SDS011;56478;50.982;7.032;2023-02-28T03:39:00;2.60;;;2.40;;
68176;SDS011;56478;50.982;7.032;2023-02-28T03:41:42;2.33;;;2.10;;
68176;SDS011;56478;50.982;7.032;2023-02-28T03:44:16;2.58;;;2.20;;
68176;SDS011;56478;50.982;7.032;2023-02-28T03:46:58;2.60;;;2.40;;
68176;SDS011;56478;50.982;7.032;2023-02-28T03:49:41;2.40;;;2.20;;
68176;SDS011;56478;50.982;7.032;2023-02-28T03:52:12;3.70;;;2.22;;
68176;SDS011;56478;50.982;7.032;2023-02-28T03:54:41;3.75;;;2.25;;
68176;SDS011;56478;50.982;7.032;2023-02-28T04:00:00;2.88;;;2.40;;
68176;SDS011;56478;50.982;7.032;2023-02-28T04:02:31;2.58;;;2.38;;
68176;SDS011;56478;50.982;7.032;2023-02-28T04:04:57;3.63;;;2.50;;
68176;SDS011;56478;50.982;7.032;2023-02-28T04:07:22;3.13;;;2.55;;
68176;SDS011;56478;50.982;7.032;2023-02-28T04:09:48;2.60;;;2.40;;
68176;SDS011;56478;50.982;7.032;2023-02-28T04:12:14;3.03;;;2.17;;
68176;SDS011;56478;50.982;7.032;2023-02-28T04:14:39;2.63;;;2.42;;
68176;SDS011;56478;50.982;7.032;2023-02-28T04:17:05;4.00;;;2.42;;
68176;SDS011;56478;50.982;7.032;2023-02-28T04:19:30;3.08;;;2.45;;
68176;SDS011;56478;50.982;7.032;2023-02-28T04:21:56;5.38;;;2.67;;
68176;SDS011;56478;50.982;7.032;2023-02-28T04:24:22;3.58;;;2.53;;
68176;SDS011;56478;50.982;7.032;2023-02-28T04:26:50;2.58;;;2.38;;
68176;SDS011;56478;50.982;7.032;2023-02-28T04:29:22;3.53;;;2.50;;
68176;SDS011;56478;50.982;7.032;2023-02-28T04:31:53;2.60;;;2.40;;
68176;SDS011;56478;50.982;7.032;2023-02-28T04:34:19;2.75;;;2.55;;
68176;SDS011;56478;50.982;7.032;2023-02-28T04:36:46;2.95;;;2.50;;
68176;SDS011;56478;50.982;7.032;2023-02-28T04:39:14;2.72;;;2.47;;
68176;SDS011;56478;50.982;7.032;2023-02-28T04:41:40;2.92;;;2.58;;
68176;SDS011;56478;50.982;7.032;2023-02-28T04:44:06;2.67;;;2.47;;
68176;SDS011;56478;50.982;7.032;2023-02-28T04:46:31;4.13;;;2.38;;
68176;SDS011;56478;50.982;7.032;2023-02-28T04:48:57;2.72;;;2.42;;
68176;SDS011;56478;50.982;7.032;2023-02-28T04:51:23;2.78;;;2.58;;
68176;SDS011;56478;50.982;7.032;2023-02-28T04:53:49;4.22;;;2.42;;
68176;SDS011;56478;50.982;7.032;2023-02-28T04:56:16;3.20;;;2.65;;
68176;SDS011;56478;50.982;7.032;2023-02-28T04:58:42;3.28;;;2.78;;
68176;SDS011;56478;50.982;7.032;2023-02-28T05:01:16;2.35;;;2.20;;
68176;SDS011;56478;50.982;7.032;2023-02-28T05:03:53;2.60;;;2.40;;
68176;SDS011;56478;50.982;7.032;2023-02-28T05:06:22;2.85;;;2.65;;
68176;SDS011;56478;50.982;7.032;2023-02-28T05:08:52;3.58;;;2.50;;
68176;SDS011;56478;50.982;7.032;2023-02-28T05:11:27;3.20;;;2.67;;
68176;SDS011;56478;50.982;7.032;2023-02-28T05:14:03;2.90;;;2.70;;
68176;SDS011;56478;50.982;7.032;2023-02-28T05:16:30;2.88;;;2.55;;
68176;SDS011;56478;50.982;7.032;2023-02-28T05:18:56;2.55;;;2.35;;
68176;SDS011;56478;50.982;7.032;2023-02-28T05:21:35;2.58;;;2.38;;
68176;SDS011;56478;50.982;7.032;2023-02-28T05:24:04;3.60;;;2.83;;
68176;SDS011;56478;50.982;7.032;2023-02-28T05:26:40;3.05;;;2.45;;
68176;SDS011;56478;50.982;7.032;2023-02-28T05:29:06;3.08;;;2.75;;
68176;SDS011;56478;50.982;7.032;2023-02-28T05:31:32;4.82;;;2.78;;
68176;SDS011;56478;50.982;7.032;2023-02-28T05:33:58;3.47;;;2.95;;
68176;SDS011;56478;50.982;7.032;2023-02-28T05:36:24;4.93;;;3.28;;
68176;SDS011;56478;50.982;7.032;2023-02-28T05:38:50;4.03;;;2.75;;
68176;SDS011;56478;50.982;7.032;2023-02-28T05:41:17;2.47;;;2.28;;
68176;SDS011;56478;50.982;7.032;2023-02-28T05:43:44;2.95;;;2.30;;
68176;SDS011;56478;50.982;7.032;2023-02-28T05:46:10;2.55;;;2.35;;
68176;SDS011;56478;50.982;7.032;2023-02-28T05:48:38;2.40;;;2.20;;
68176;SDS011;56478;50.982;7.032;2023-02-28T05:51:04;2.85;;;2.38;;
68176;SDS011;56478;50.982;7.032;2023-02-28T05:53:31;2.35;;;2.15;;
68176;SDS011;56478;50.982;7.032;2023-02-28T05:55:57;3.95;;;2.60;;
68176;SDS011;56478;50.982;7.032;2023-02-28T05:58:23;3.00;;;2.50;;
68176;SDS011;56478;50.982;7.032;2023-02-28T06:00:50;2.17;;;2.08;;
68176;SDS011;56478;50.982;7.032;2023-02-28T06:03:16;4.85;;;2.72;;
68176;SDS011;56478;50.982;7.032;2023-02-28T06:05:42;3.28;;;2.33;;
68176;SDS011;56478;50.982;7.032;2023-02-28T06:08:07;3.08;;;2.40;;
68176;SDS011;56478;50.982;7.032;2023-02-28T06:10:33;2.28;;;2.10;;
68176;SDS011;56478;50.982;7.032;2023-02-28T06:13:00;2.45;;;2.25;;
68176;SDS011;56478;50.982;7.032;2023-02-28T06:15:30;2.50;;;2.30;;
68176;SDS011;56478;50.982;7.032;2023-02-28T06:17:55;2.70;;;2.50;;
68176;SDS011;56478;50.982;7.032;2023-02-28T06:20:21;3.22;;;2.33;;
68176;SDS011;56478;50.982;7.032;2023-02-28T06:22:47;2.53;;;2.33;;
68176;SDS011;56478;50.982;7.032;2023-02-28T06:25:13;2.58;;;2.38;;
68176;SDS011;56478;50.982;7.032;2023-02-28T06:27:38;6.93;;;3.17;;
68176;SDS011;56478;50.982;7.032;2023-02-28T06:30:04;5.78;;;2.90;;
68176;SDS011;56478;50.982;7.032;2023-02-28T06:32:30;4.10;;;2.65;;
68176;SDS011;56478;50.982;7.032;2023-02-28T06:34:55;3.60;;;2.47;;
68176;SDS011;56478;50.982;7.032;2023-02-28T06:37:22;2.72;;;2.53;;
68176;SDS011;56478;50.982;7.032;2023-02-28T06:39:51;2.70;;;2.50;;
68176;SDS011;56478;50.982;7.032;2023-02-28T06:42:16;4.72;;;2.78;;
68176;SDS011;56478;50.982;7.032;2023-02-28T06:44:42;4.57;;;2.53;;
68176;SDS011;56478;50.982;7.032;2023-02-28T06:47:08;3.20;;;2.53;;
68176;SDS011;56478;50.982;7.032;2023-02-28T06:49:34;3.00;;;2.80;;
68176;SDS011;56478;50.982;7.032;2023-02-28T06:52:00;3.28;;;2.72;;
68176;SDS011;56478;50.982;7.032;2023-02-28T06:54:26;4.60;;;2.70;;
68176;SDS011;56478;50.982;7.032;2023-02-28T06:56:52;2.90;;;2.60;;
68176;SDS011;56478;50.982;7.032;2023-02-28T06:59:19;2.78;;;2.47;;
68176;SDS011;56478;50.982;7.032;2023-02-28T07:01:45;2.80;;;2.45;;
68176;SDS011;56478;50.982;7.032;2023-02-28T07:04:10;3.03;;;2.70;;
68176;SDS011;56478;50.982;7.032;2023-02-28T07:06:36;3.35;;;2.55;;
68176;SDS011;56478;50.982;7.032;2023-02-28T07:09:01;3.38;;;2.55;;
68176;SDS011;56478;50.982;7.032;2023-02-28T07:11:27;4.22;;;2.80;;
68176;SDS011;56478;50.982;7.032;2023-02-28T07:13:53;5.82;;;2.80;;
68176;SDS011;56478;50.982;7.032;2023-02-28T07:16:20;3.67;;;2.70;;
68176;SDS011;56478;50.982;7.032;2023-02-28T07:18:46;2.72;;;2.47;;
68176;SDS011;56478;50.982;7.032;2023-02-28T07:21:12;6.38;;;2.40;;
68176;SDS011;56478;50.982;7.032;2023-02-28T07:23:38;3.25;;;2.42;;
68176;SDS011;56478;50.982;7.032;2023-02-28T07:26:04;2.40;;;2.30;;
68176;SDS011;56478;50.982;7.032;2023-02-28T07:28:31;2.50;;;2.30;;
68176;SDS011;56478;50.982;7.032;2023-02-28T07:30:56;3.00;;;2.20;;
68176;SDS011;56478;50.982;7.032;2023-02-28T07:33:22;2.60;;;2.40;;
68176;SDS011;56478;50.982;7.032;2023-02-28T07:35:48;2.53;;;2.33;;
68176;SDS011;56478;50.982;7.032;2023-02-28T07:38:14;2.50;;;2.30;;
68176;SDS011;56478;50.982;7.032;2023-02-28T07:40:40;2.92;;;2.42;;
68176;SDS011;56478;50.982;7.032;2023-02-28T07:43:06;4.63;;;2.60;;
68176;SDS011;56478;50.982;7.032;2023-02-28T07:45:32;2.83;;;2.60;;
68176;SDS011;56478;50.982;7.032;2023-02-28T07:47:59;3.53;;;2.50;;
68176;SDS011;56478;50.982;7.032;2023-02-28T07:50:25;2.40;;;2.20;;
68176;SDS011;56478;50.982;7.032;2023-02-28T07:52:52;2.30;;;2.08;;
68176;SDS011;56478;50.982;7.032;2023-02-28T07:55:18;2.67;;;2.47;;
68176;SDS011;56478;50.982;7.032;2023-02-28T07:57:43;2.60;;;2.40;;
68176;SDS011;56478;50.982;7.032;2023-02-28T08:00:10;2.55;;;2.40;;
68176;SDS011;56478;50.982;7.032;2023-02-28T08:02:37;3.25;;;2.53;;
68176;SDS011;56478;50.982;7.032;2023-02-28T08:05:03;2.20;;;2.10;;
68176;SDS011;56478;50.982;7.032;2023-02-28T08:07:30;2.40;;;2.20;;
68176;SDS011;56478;50.982;7.032;2023-02-28T08:09:55;2.60;;;2.40;;
68176;SDS011;56478;50.982;7.032;2023-02-28T08:12:21;2.47;;;2.20;;
68176;SDS011;56478;50.982;7.032;2023-02-28T08:14:46;2.40;;;2.20;;
68176;SDS011;56478;50.982;7.032;2023-02-28T08:17:12;2.47;;;2.28;;
68176;SDS011;56478;50.982;7.032;2023-02-28T08:19:38;2.55;;;2.35;;
68176;SDS011;56478;50.982;7.032;2023-02-28T08:22:04;2.47;;;2.30;;
68176;SDS011;56478;50.982;7.032;2023-02-28T08:24:29;2.30;;;2.20;;
68176;SDS011;56478;50.982;7.032;2023-02-28T08:26:55;2.47;;;2.30;;
68176;SDS011;56478;50.982;7.032;2023-02-28T08:29:22;2.58;;;2.38;;
68176;SDS011;56478;50.982;7.032;2023-02-28T08:31:48;2.30;;;2.10;;
68176;SDS011;56478;50.982;7.032;2023-02-28T08:34:14;2.53;;;2.30;;
68176;SDS011;56478;50.982;7.032;2023-02-28T08:36:41;2.47;;;2.28;;
68176;SDS011;56478;50.982;7.032;2023-02-28T08:39:08;2.20;;;2.10;;
68176;SDS011;56478;50.982;7.032;2023-02-28T08:41:34;2.10;;;2.00;;
68176;SDS011;56478;50.982;7.032;2023-02-28T08:44:00;2.30;;;2.20;;
68176;SDS011;56478;50.982;7.032;2023-02-28T08:46:26;2.17;;;2.08;;
68176;SDS011;56478;50.982;7.032;2023-02-28T08:48:52;2.00;;;1.90;;
68176;SDS011;56478;50.982;7.032;2023-02-28T08:51:20;2.20;;;2.08;;
68176;SDS011;56478;50.982;7.032;2023-02-28T08:53:51;2.10;;;2.00;;
68176;SDS011;56478;50.982;7.032;2023-02-28T08:56:18;2.13;;;2.00;;
68176;SDS011;56478;50.982;7.032;2023-02-28T08:58:50;6.82;;;2.28;;
68176;SDS011;56478;50.982;7.032;2023-02-28T09:01:27;2.30;;;2.10;;
68176;SDS011;56478;50.982;7.032;2023-02-28T09:03:54;2.03;;;1.92;;
68176;SDS011;56478;50.982;7.032;2023-02-28T09:06:22;2.60;;;1.70;;
68176;SDS011;56478;50.982;7.032;2023-02-28T09:08:49;2.88;;;2.05;;
68176;SDS011;56478;50.982;7.032;2023-02-28T09:11:15;2.63;;;2.15;;
68176;SDS011;56478;50.982;7.032;2023-02-28T09:13:41;2.10;;;2.00;;
68176;SDS011;56478;50.982;7.032;2023-02-28T09:16:08;2.33;;;2.20;;
68176;SDS011;56478;50.982;7.032;2023-02-28T09:18:36;4.10;;;2.00;;
68176;SDS011;56478;50.982;7.032;2023-02-28T09:21:03;2.10;;;2.00;;
68176;SDS011;56478;50.982;7.032;2023-02-28T09:23:31;2.35;;;2.20;;
68176;SDS011;56478;50.982;7.032;2023-02-28T09:25:56;2.33;;;2.13;;
68176;SDS011;56478;50.982;7.032;2023-02-28T09:28:22;2.28;;;2.08;;
68176;SDS011;56478;50.982;7.032;2023-02-28T09:30:49;2.40;;;2.20;;
68176;SDS011;56478;50.982;7.032;2023-02-28T09:33:17;1.80;;;1.70;;
68176;SDS011;56478;50.982;7.032;2023-02-28T09:35:45;2.13;;;2.03;;
68176;SDS011;56478;50.982;7.032;2023-02-28T09:38:11;2.08;;;1.98;;
68176;SDS011;56478;50.982;7.032;2023-02-28T09:40:38;7.30;;;1.83;;
68176;SDS011;56478;50.982;7.032;2023-02-28T09:43:12;2.17;;;1.90;;
68176;SDS011;56478;50.982;7.032;2023-02-28T09:45:41;2.05;;;1.90;;
68176;SDS011;56478;50.982;7.032;2023-02-28T09:48:14;3.63;;;2.10;;
68176;SDS011;56478;50.982;7.032;2023-02-28T09:50:46;2.15;;;2.00;;
68176;SDS011;56478;50.982;7.032;2023-02-28T09:55:53;1.90;;;1.80;;
68176;SDS011;56478;50.982;7.032;2023-02-28T09:58:26;2.03;;;1.90;;
68176;SDS011;56478;50.982;7.032;2023-02-28T10:01:03;2.60;;;2.40;;
68176;SDS011;56478;50.982;7.032;2023-02-28T10:03:39;3.13;;;2.33;;
68176;SDS011;56478;50.982;7.032;2023-02-28T10:06:14;2.30;;;2.15;;
68176;SDS011;56478;50.982;7.032;2023-02-28T10:09:09;2.38;;;2.17;;
68176;SDS011;56478;50.982;7.032;2023-02-28T10:12:00;2.22;;;2.00;;
68176;SDS011;56478;50.982;7.032;2023-02-28T10:14:29;2.00;;;1.90;;
68176;SDS011;56478;50.982;7.032;2023-02-28T10:17:08;2.42;;;2.22;;
68176;SDS011;56478;50.982;7.032;2023-02-28T10:22:25;3.53;;;2.20;;
68176;SDS011;56478;50.982;7.032;2023-02-28T10:24:57;2.10;;;2.00;;
68176;SDS011;56478;50.982;7.032;2023-02-28T10:27:29;2.10;;;2.00;;
68176;SDS011;56478;50.982;7.032;2023-02-28T10:29:56;2.10;;;2.00;;
68176;SDS011;56478;50.982;7.032;2023-02-28T10:32:27;2.10;;;2.00;;
68176;SDS011;56478;50.982;7.032;2023-02-28T10:35:00;2.10;;;2.00;;
68176;SDS011;56478;50.982;7.032;2023-02-28T10:37:38;2.10;;;2.00;;
68176;SDS011;56478;50.982;7.032;2023-02-28T10:40:05;2.00;;;1.90;;
68176;SDS011;56478;50.982;7.032;2023-02-28T10:42:34;2.15;;;1.95;;
68176;SDS011;56478;50.982;7.032;2023-02-28T10:45:10;6.00;;;2.00;;
68176;SDS011;56478;50.982;7.032;2023-02-28T10:50:26;2.70;;;2.17;;
68176;SDS011;56478;50.982;7.032;2023-02-28T11:07:18;2.53;;;2.33;;
68176;SDS011;56478;50.982;7.032;2023-02-28T11:09:48;2.15;;;1.92;;
68176;SDS011;56478;50.982;7.032;2023-02-28T11:12:26;5.00;;;1.92;;
68176;SDS011;56478;50.982;7.032;2023-02-28T11:15:39;2.25;;;2.15;;
68176;SDS011;56478;50.982;7.032;2023-02-28T11:17:42;2.63;;;2.30;;
68176;SDS011;56478;50.982;7.032;2023-02-28T11:20:13;2.33;;;2.13;;
68176;SDS011;56478;50.982;7.032;2023-02-28T11:22:44;2.50;;;2.30;;
68176;SDS011;56478;50.982;7.032;2023-02-28T11:27:58;4.93;;;2.45;;
68176;SDS011;56478;50.982;7.032;2023-02-28T11:30:31;3.95;;;2.20;;
68176;SDS011;56478;50.982;7.032;2023-02-28T11:33:01;2.38;;;2.17;;
68176;SDS011;56478;50.982;7.032;2023-02-28T11:35:48;2.92;;;2.20;;
68176;SDS011;56478;50.982;7.032;2023-02-28T11:38:15;2.40;;;2.20;;
68176;SDS011;56478;50.982;7.032;2023-02-28T11:46:19;3.08;;;2.38;;
68176;SDS011;56478;50.982;7.032;2023-02-28T11:52:01;2.58;;;2.38;;
68176;SDS011;56478;50.982;7.032;2023-02-28T11:54:54;2.90;;;2.38;;
68176;SDS011;56478;50.982;7.032;2023-02-28T12:00:06;2.25;;;2.10;;
68176;SDS011;56478;50.982;7.032;2023-02-28T12:05:11;2.65;;;2.42;;
68176;SDS011;56478;50.982;7.032;2023-02-28T12:07:55;6.47;;;2.47;;
68176;SDS011;56478;50.982;7.032;2023-02-28T12:10:26;4.97;;;2.22;;
68176;SDS011;56478;50.982;7.032;2023-02-28T12:13:09;2.45;;;2.25;;
68176;SDS011;56478;50.982;7.032;2023-02-28T12:16:01;2.65;;;2.40;;
68176;SDS011;56478;50.982;7.032;2023-02-28T12:24:25;2.63;;;2.42;;
68176;SDS011;56478;50.982;7.032;2023-02-28T12:26:55;3.10;;;2.78;;
68176;SDS011;56478;50.982;7.032;2023-02-28T12:29:29;3.05;;;2.50;;
68176;SDS011;56478;50.982;7.032;2023-02-28T12:32:05;2.95;;;2.58;;
68176;SDS011;56478;50.982;7.032;2023-02-28T12:34:36;3.53;;;2.80;;
68176;SDS011;56478;50.982;7.032;2023-02-28T12:37:06;3.33;;;2.95;;
68176;SDS011;56478;50.982;7.032;2023-02-28T12:39:41;3.03;;;2.83;;
68176;SDS011;56478;50.982;7.032;2023-02-28T12:42:12;2.53;;;2.33;;
68176;SDS011;56478;50.982;7.032;2023-02-28T12:47:29;4.78;;;2.70;;
68176;SDS011;56478;50.982;7.032;2023-02-28T12:52:39;3.05;;;2.70;;
68176;SDS011;56478;50.982;7.032;2023-02-28T12:58:13;2.80;;;2.60;;
68176;SDS011;56478;50.982;7.032;2023-02-28T13:00:45;2.72;;;2.53;;
68176;SDS011;56478;50.982;7.032;2023-02-28T13:11:50;3.13;;;2.83;;
68176;SDS011;56478;50.982;7.032;2023-02-28T13:14:43;3.92;;;2.78;;
68176;SDS011;56478;50.982;7.032;2023-02-28T13:17:03;5.35;;;3.08;;
68176;SDS011;56478;50.982;7.032;2023-02-28T13:22:04;3.15;;;2.85;;
68176;SDS011;56478;50.982;7.032;2023-02-28T13:24:45;2.80;;;2.50;;
68176;SDS011;56478;50.982;7.032;2023-02-28T13:27:23;3.28;;;2.97;;
68176;SDS011;56478;50.982;7.032;2023-02-28T13:29:56;2.97;;;2.63;;
68176;SDS011;56478;50.982;7.032;2023-02-28T13:39:49;4.13;;;2.80;;
68176;SDS011;56478;50.982;7.032;2023-02-28T13:47:36;2.90;;;2.70;;
68176;SDS011;56478;50.982;7.032;2023-02-28T14:06:53;3.65;;;2.50;;
68176;SDS011;56478;50.982;7.032;2023-02-28T14:09:23;2.72;;;2.53;;
68176;SDS011;56478;50.982;7.032;2023-02-28T14:11:52;2.60;;;2.40;;
68176;SDS011;56478;50.982;7.032;2023-02-28T14:15:04;2.97;;;2.78;;
68176;SDS011;56478;50.982;7.032;2023-02-28T14:17:07;3.35;;;3.00;;
68176;SDS011;56478;50.982;7.032;2023-02-28T14:19:39;3.40;;;3.10;;
68176;SDS011;56478;50.982;7.032;2023-02-28T14:22:10;3.95;;;2.95;;
68176;SDS011;56478;50.982;7.032;2023-02-28T14:35:55;3.17;;;2.85;;
68176;SDS011;56478;50.982;7.032;2023-02-28T14:38:54;3.15;;;2.88;;
68176;SDS011;56478;50.982;7.032;2023-02-28T14:41:24;3.40;;;3.10;;
68176;SDS011;56478;50.982;7.032;2023-02-28T14:43:55;3.10;;;2.80;;
68176;SDS011;56478;50.982;7.032;2023-02-28T14:46:24;3.13;;;2.83;;
68176;SDS011;56478;50.982;7.032;2023-02-28T14:48:55;4.65;;;2.80;;
68176;SDS011;56478;50.982;7.032;2023-02-28T14:51:21;3.20;;;2.90;;
68176;SDS011;56478;50.982;7.032;2023-02-28T14:53:49;3.30;;;3.00;;
68176;SDS011;56478;50.982;7.032;2023-02-28T14:56:19;4.13;;;2.97;;
68176;SDS011;56478;50.982;7.032;2023-02-28T14:58:54;4.85;;;3.20;;
68176;SDS011;56478;50.982;7.032;2023-02-28T15:01:22;3.38;;;3.08;;
68176;SDS011;56478;50.982;7.032;2023-02-28T15:04:00;4.28;;;3.38;;
68176;SDS011;56478;50.982;7.032;2023-02-28T15:06:31;8.50;;;3.75;;
68176;SDS011;56478;50.982;7.032;2023-02-28T15:09:13;3.53;;;3.00;;
68176;SDS011;56478;50.982;7.032;2023-02-28T15:11:47;3.05;;;2.75;;
68176;SDS011;56478;50.982;7.032;2023-02-28T15:14:16;3.47;;;3.00;;
68176;SDS011;56478;50.982;7.032;2023-02-28T15:16:44;3.25;;;3.00;;
68176;SDS011;56478;50.982;7.032;2023-02-28T15:22:26;3.50;;;3.10;;
68176;SDS011;56478;50.982;7.032;2023-02-28T15:24:46;3.53;;;3.00;;
68176;SDS011;56478;50.982;7.032;2023-02-28T15:27:21;3.05;;;2.85;;
68176;SDS011;56478;50.982;7.032;2023-02-28T15:29:49;5.10;;;3.08;;
68176;SDS011;56478;50.982;7.032;2023-02-28T15:32:32;3.25;;;2.95;;
68176;SDS011;56478;50.982;7.032;2023-02-28T15:35:17;5.68;;;3.28;;
68176;SDS011;56478;50.982;7.032;2023-02-28T15:43:12;3.92;;;3.53;;
68176;SDS011;56478;50.982;7.032;2023-02-28T15:48:17;3.53;;;3.15;;
68176;SDS011;56478;50.982;7.032;2023-02-28T15:50:50;3.50;;;3.20;;
68176;SDS011;56478;50.982;7.032;2023-02-28T15:53:41;3.05;;;2.85;;
68176;SDS011;56478;50.982;7.032;2023-02-28T15:56:22;3.08;;;2.85;;
68176;SDS011;56478;50.982;7.032;2023-02-28T15:58:50;3.75;;;3.10;;
68176;SDS011;56478;50.982;7.032;2023-02-28T16:01:29;2.80;;;2.60;;
68176;SDS011;56478;50.982;7.032;2023-02-28T16:03:58;3.38;;;2.70;;
68176;SDS011;56478;50.982;7.032;2023-02-28T16:09:01;3.30;;;2.95;;
68176;SDS011;56478;50.982;7.032;2023-02-28T16:11:28;2.60;;;2.40;;
68176;SDS011;56478;50.982;7.032;2023-02-28T16:13:54;3.20;;;2.90;;
68176;SDS011;56478;50.982;7.032;2023-02-28T16:16:20;2.80;;;2.60;;
68176;SDS011;56478;50.982;7.032;2023-02-28T16:18:47;2.85;;;2.65;;
68176;SDS011;56478;50.982;7.032;2023-02-28T16:21:13;3.13;;;2.85;;
68176;SDS011;56478;50.982;7.032;2023-02-28T16:23:39;3.70;;;2.70;;
68176;SDS011;56478;50.982;7.032;2023-02-28T16:26:05;2.90;;;2.63;;
68176;SDS011;56478;50.982;7.032;2023-02-28T16:28:35;2.85;;;2.58;;
68176;SDS011;56478;50.982;7.032;2023-02-28T16:31:04;3.30;;;2.70;;
68176;SDS011;56478;50.982;7.032;2023-02-28T16:33:31;2.92;;;2.67;;
68176;SDS011;56478;50.982;7.032;2023-02-28T16:35:58;4.30;;;2.60;;
68176;SDS011;56478;50.982;7.032;2023-02-28T16:38:26;2.75;;;2.55;;
68176;SDS011;56478;50.982;7.032;2023-02-28T16:40:53;3.72;;;2.58;;
68176;SDS011;56478;50.982;7.032;2023-02-28T16:43:23;2.88;;;2.60;;
68176;SDS011;56478;50.982;7.032;2023-02-28T16:45:54;4.10;;;2.50;;
68176;SDS011;56478;50.982;7.032;2023-02-28T16:48:21;6.30;;;2.90;;
68176;SDS011;56478;50.982;7.032;2023-02-28T16:50:48;3.00;;;2.60;;
68176;SDS011;56478;50.982;7.032;2023-02-28T16:53:14;3.20;;;2.90;;
68176;SDS011;56478;50.982;7.032;2023-02-28T16:55:40;4.75;;;2.90;;
68176;SDS011;56478;50.982;7.032;2023-02-28T16:58:05;3.35;;;3.05;;
68176;SDS011;56478;50.982;7.032;2023-02-28T17:00:31;3.53;;;3.00;;
68176;SDS011;56478;50.982;7.032;2023-02-28T17:02:57;2.97;;;2.60;;
68176;SDS011;56478;50.982;7.032;2023-02-28T17:05:27;3.20;;;2.90;;
68176;SDS011;56478;50.982;7.032;2023-02-28T17:08:00;3.00;;;2.70;;
68176;SDS011;56478;50.982;7.032;2023-02-28T17:10:26;3.70;;;2.88;;
68176;SDS011;56478;50.982;7.032;2023-02-28T17:12:52;3.80;;;2.88;;
68176;SDS011;56478;50.982;7.032;2023-02-28T17:15:19;3.97;;;2.95;;
68176;SDS011;56478;50.982;7.032;2023-02-28T17:17:45;3.47;;;2.90;;
68176;SDS011;56478;50.982;7.032;2023-02-28T17:20:13;3.75;;;3.15;;
68176;SDS011;56478;50.982;7.032;2023-02-28T17:22:43;4.25;;;3.03;;
68176;SDS011;56478;50.982;7.032;2023-02-28T17:25:09;3.72;;;3.33;;
68176;SDS011;56478;50.982;7.032;2023-02-28T17:27:36;4.00;;;2.80;;
68176;SDS011;56478;50.982;7.032;2023-02-28T17:30:03;3.00;;;2.80;;
68176;SDS011;56478;50.982;7.032;2023-02-28T17:32:49;3.45;;;3.15;;
68176;SDS011;56478;50.982;7.032;2023-02-28T17:35:15;3.45;;;3.15;;